sensor_id;sensor_type;location;lat;lon;timestamp;temperature;humidity
4453;DHT22;2239;48.152;11.584;2022-07-18T00:00:03;19.50;71.10
4453;DHT22;2239;48.152;11.584;2022-07-18T00:02:29;19.40;71.40
4453;DHT22;2239;48.152;11.584;2022-07-18T00:04:54;19.40;71.80
4453;DHT22;2239;48.152;11.584;2022-07-18T00:07:20;19.40;71.90
4453;DHT22;2239;48.152;11.584;2022-07-18T00:09:45;19.30;71.80
4453;DHT22;2239;48.152;11.584;2022-07-18T00:12:11;19.30;72.00
4453;DHT22;2239;48.152;11.584;2022-07-18T00:14:37;19.30;72.40
4453;DHT22;2239;48.152;11.584;2022-07-18T00:17:04;19.30;72.50
4453;DHT22;2239;48.152;11.584;2022-07-18T00:19:30;19.30;72.80
4453;DHT22;2239;48.152;11.584;2022-07-18T00:21:56;19.30;73.10
4453;DHT22;2239;48.152;11.584;2022-07-18T00:24:22;19.30;73.20
4453;DHT22;2239;48.152;11.584;2022-07-18T00:26:47;19.20;73.60
4453;DHT22;2239;48.152;11.584;2022-07-18T00:29:13;19.20;74.70
4453;DHT22;2239;48.152;11.584;2022-07-18T00:31:38;19.20;74.40
4453;DHT22;2239;48.152;11.584;2022-07-18T00:34:04;19.10;74.60
4453;DHT22;2239;48.152;11.584;2022-07-18T00:36:31;19.10;75.10
4453;DHT22;2239;48.152;11.584;2022-07-18T00:38:57;19.10;75.00
4453;DHT22;2239;48.152;11.584;2022-07-18T00:41:24;19.10;75.30
4453;DHT22;2239;48.152;11.584;2022-07-18T00:43:50;19.00;75.60
4453;DHT22;2239;48.152;11.584;2022-07-18T00:46:19;19.00;76.30
4453;DHT22;2239;48.152;11.584;2022-07-18T00:48:45;19.00;76.80
4453;DHT22;2239;48.152;11.584;2022-07-18T00:51:11;18.90;77.00
4453;DHT22;2239;48.152;11.584;2022-07-18T00:53:36;18.90;77.50
4453;DHT22;2239;48.152;11.584;2022-07-18T00:56:03;18.80;77.80
4453;DHT22;2239;48.152;11.584;2022-07-18T00:58:29;18.80;78.40
4453;DHT22;2239;48.152;11.584;2022-07-18T01:00:55;18.70;78.60
4453;DHT22;2239;48.152;11.584;2022-07-18T01:03:39;18.70;79.20
4453;DHT22;2239;48.152;11.584;2022-07-18T01:06:05;18.70;79.80
4453;DHT22;2239;48.152;11.584;2022-07-18T01:08:31;18.60;81.60
4453;DHT22;2239;48.152;11.584;2022-07-18T01:10:56;18.60;81.80
4453;DHT22;2239;48.152;11.584;2022-07-18T01:13:22;18.60;81.90
4453;DHT22;2239;48.152;11.584;2022-07-18T01:15:47;18.50;83.40
4453;DHT22;2239;48.152;11.584;2022-07-18T01:18:13;18.50;83.80
4453;DHT22;2239;48.152;11.584;2022-07-18T01:20:39;18.40;84.00
4453;DHT22;2239;48.152;11.584;2022-07-18T01:23:04;18.30;84.40
4453;DHT22;2239;48.152;11.584;2022-07-18T01:25:30;18.30;85.20
4453;DHT22;2239;48.152;11.584;2022-07-18T01:27:56;18.20;86.90
4453;DHT22;2239;48.152;11.584;2022-07-18T01:30:22;18.20;86.90
4453;DHT22;2239;48.152;11.584;2022-07-18T01:32:58;18.20;86.90
4453;DHT22;2239;48.152;11.584;2022-07-18T01:35:24;18.10;86.90
4453;DHT22;2239;48.152;11.584;2022-07-18T01:37:54;18.10;89.10
4453;DHT22;2239;48.152;11.584;2022-07-18T01:40:20;18.10;89.60
4453;DHT22;2239;48.152;11.584;2022-07-18T01:42:45;18.10;89.00
4453;DHT22;2239;48.152;11.584;2022-07-18T01:45:11;18.10;89.00
4453;DHT22;2239;48.152;11.584;2022-07-18T01:47:37;18.00;90.20
4453;DHT22;2239;48.152;11.584;2022-07-18T01:50:03;18.00;90.10
4453;DHT22;2239;48.152;11.584;2022-07-18T01:52:28;18.00;90.50
4453;DHT22;2239;48.152;11.584;2022-07-18T01:54:54;18.00;91.00
4453;DHT22;2239;48.152;11.584;2022-07-18T01:57:19;18.10;90.70
4453;DHT22;2239;48.152;11.584;2022-07-18T01:59:45;18.00;90.30
4453;DHT22;2239;48.152;11.584;2022-07-18T02:02:11;18.00;90.50
4453;DHT22;2239;48.152;11.584;2022-07-18T02:04:36;17.90;90.70
4453;DHT22;2239;48.152;11.584;2022-07-18T02:07:21;17.90;91.00
4453;DHT22;2239;48.152;11.584;2022-07-18T02:09:47;18.00;91.10
4453;DHT22;2239;48.152;11.584;2022-07-18T02:12:13;17.90;91.10
4453;DHT22;2239;48.152;11.584;2022-07-18T02:14:38;17.90;91.30
4453;DHT22;2239;48.152;11.584;2022-07-18T02:17:04;17.80;91.30
4453;DHT22;2239;48.152;11.584;2022-07-18T02:19:30;17.70;91.30
4453;DHT22;2239;48.152;11.584;2022-07-18T02:21:55;17.70;91.20
4453;DHT22;2239;48.152;11.584;2022-07-18T02:24:21;17.80;91.00
4453;DHT22;2239;48.152;11.584;2022-07-18T02:26:46;17.70;91.00
4453;DHT22;2239;48.152;11.584;2022-07-18T02:29:12;17.80;91.00
4453;DHT22;2239;48.152;11.584;2022-07-18T02:31:37;17.70;91.10
4453;DHT22;2239;48.152;11.584;2022-07-18T02:34:03;17.70;91.30
4453;DHT22;2239;48.152;11.584;2022-07-18T02:36:36;17.70;91.60
4453;DHT22;2239;48.152;11.584;2022-07-18T02:39:03;17.60;92.00
4453;DHT22;2239;48.152;11.584;2022-07-18T02:41:28;17.60;92.40
4453;DHT22;2239;48.152;11.584;2022-07-18T02:43:54;17.50;92.60
4453;DHT22;2239;48.152;11.584;2022-07-18T02:46:19;17.50;92.70
4453;DHT22;2239;48.152;11.584;2022-07-18T02:48:45;17.40;93.00
4453;DHT22;2239;48.152;11.584;2022-07-18T02:51:10;17.40;93.10
4453;DHT22;2239;48.152;11.584;2022-07-18T02:53:36;17.40;93.20
4453;DHT22;2239;48.152;11.584;2022-07-18T02:56:02;17.40;93.30
4453;DHT22;2239;48.152;11.584;2022-07-18T02:58:27;17.40;93.40
4453;DHT22;2239;48.152;11.584;2022-07-18T03:00:53;17.40;93.50
4453;DHT22;2239;48.152;11.584;2022-07-18T03:03:18;17.40;93.60
4453;DHT22;2239;48.152;11.584;2022-07-18T03:05:44;17.40;93.80
4453;DHT22;2239;48.152;11.584;2022-07-18T03:08:09;17.40;94.20
4453;DHT22;2239;48.152;11.584;2022-07-18T03:10:35;17.40;94.70
4453;DHT22;2239;48.152;11.584;2022-07-18T03:13:01;17.30;94.80
4453;DHT22;2239;48.152;11.584;2022-07-18T03:15:26;17.20;95.20
4453;DHT22;2239;48.152;11.584;2022-07-18T03:17:52;17.20;95.60
4453;DHT22;2239;48.152;11.584;2022-07-18T03:20:17;17.10;95.50
4453;DHT22;2239;48.152;11.584;2022-07-18T03:22:43;17.10;95.70
4453;DHT22;2239;48.152;11.584;2022-07-18T03:25:09;17.10;95.90
4453;DHT22;2239;48.152;11.584;2022-07-18T03:27:34;17.00;96.50
4453;DHT22;2239;48.152;11.584;2022-07-18T03:30:00;17.00;96.20
4453;DHT22;2239;48.152;11.584;2022-07-18T03:32:26;17.00;96.30
4453;DHT22;2239;48.152;11.584;2022-07-18T03:34:51;17.00;96.50
4453;DHT22;2239;48.152;11.584;2022-07-18T03:37:17;17.10;96.80
4453;DHT22;2239;48.152;11.584;2022-07-18T03:39:42;17.00;96.70
4453;DHT22;2239;48.152;11.584;2022-07-18T03:42:08;17.10;97.10
4453;DHT22;2239;48.152;11.584;2022-07-18T03:44:33;17.00;97.80
4453;DHT22;2239;48.152;11.584;2022-07-18T03:46:59;17.00;97.70
4453;DHT22;2239;48.152;11.584;2022-07-18T03:49:24;17.00;98.10
4453;DHT22;2239;48.152;11.584;2022-07-18T03:51:50;16.90;98.30
4453;DHT22;2239;48.152;11.584;2022-07-18T03:54:16;16.90;98.60
4453;DHT22;2239;48.152;11.584;2022-07-18T03:56:41;16.90;98.60
4453;DHT22;2239;48.152;11.584;2022-07-18T03:59:07;16.90;98.70
4453;DHT22;2239;48.152;11.584;2022-07-18T04:01:33;17.00;98.90
4453;DHT22;2239;48.152;11.584;2022-07-18T04:03:58;17.00;98.80
4453;DHT22;2239;48.152;11.584;2022-07-18T04:06:24;17.00;99.00
4453;DHT22;2239;48.152;11.584;2022-07-18T04:08:49;17.00;99.10
4453;DHT22;2239;48.152;11.584;2022-07-18T04:11:15;17.00;99.20
4453;DHT22;2239;48.152;11.584;2022-07-18T04:13:41;17.00;99.30
4453;DHT22;2239;48.152;11.584;2022-07-18T04:16:06;17.00;99.30
4453;DHT22;2239;48.152;11.584;2022-07-18T04:18:32;17.00;99.40
4453;DHT22;2239;48.152;11.584;2022-07-18T04:20:58;17.00;99.30
4453;DHT22;2239;48.152;11.584;2022-07-18T04:23:23;17.00;99.10
4453;DHT22;2239;48.152;11.584;2022-07-18T04:25:49;17.10;99.10
4453;DHT22;2239;48.152;11.584;2022-07-18T04:28:15;17.10;98.80
4453;DHT22;2239;48.152;11.584;2022-07-18T04:30:42;17.20;98.70
4453;DHT22;2239;48.152;11.584;2022-07-18T04:33:09;17.20;98.60
4453;DHT22;2239;48.152;11.584;2022-07-18T04:35:36;17.30;98.50
4453;DHT22;2239;48.152;11.584;2022-07-18T04:38:04;17.30;98.80
4453;DHT22;2239;48.152;11.584;2022-07-18T04:40:30;17.40;98.50
4453;DHT22;2239;48.152;11.584;2022-07-18T04:42:56;17.50;98.30
4453;DHT22;2239;48.152;11.584;2022-07-18T04:45:21;17.60;98.30
4453;DHT22;2239;48.152;11.584;2022-07-18T04:47:52;17.70;98.30
4453;DHT22;2239;48.152;11.584;2022-07-18T04:50:19;17.70;98.00
4453;DHT22;2239;48.152;11.584;2022-07-18T04:52:46;17.80;97.50
4453;DHT22;2239;48.152;11.584;2022-07-18T04:55:13;17.90;97.30
4453;DHT22;2239;48.152;11.584;2022-07-18T04:57:39;18.00;97.00
4453;DHT22;2239;48.152;11.584;2022-07-18T05:00:11;18.10;96.70
4453;DHT22;2239;48.152;11.584;2022-07-18T05:02:45;18.30;96.70
4453;DHT22;2239;48.152;11.584;2022-07-18T05:05:13;18.30;96.50
4453;DHT22;2239;48.152;11.584;2022-07-18T05:07:40;18.40;96.60
4453;DHT22;2239;48.152;11.584;2022-07-18T05:10:07;18.50;96.50
4453;DHT22;2239;48.152;11.584;2022-07-18T05:12:36;18.70;96.60
4453;DHT22;2239;48.152;11.584;2022-07-18T05:15:05;18.80;96.30
4453;DHT22;2239;48.152;11.584;2022-07-18T05:17:31;18.90;95.70
4453;DHT22;2239;48.152;11.584;2022-07-18T05:19:57;19.10;95.30
4453;DHT22;2239;48.152;11.584;2022-07-18T05:22:22;19.20;95.40
4453;DHT22;2239;48.152;11.584;2022-07-18T05:24:48;19.20;95.30
4453;DHT22;2239;48.152;11.584;2022-07-18T05:27:14;19.40;95.20
4453;DHT22;2239;48.152;11.584;2022-07-18T05:29:39;19.50;95.10
4453;DHT22;2239;48.152;11.584;2022-07-18T05:32:05;19.60;95.10
4453;DHT22;2239;48.152;11.584;2022-07-18T05:34:33;19.70;94.70
4453;DHT22;2239;48.152;11.584;2022-07-18T05:36:58;19.80;94.10
4453;DHT22;2239;48.152;11.584;2022-07-18T05:39:24;19.80;93.50
4453;DHT22;2239;48.152;11.584;2022-07-18T05:41:49;19.80;93.70
4453;DHT22;2239;48.152;11.584;2022-07-18T05:44:15;19.90;93.30
4453;DHT22;2239;48.152;11.584;2022-07-18T05:46:41;20.00;92.30
4453;DHT22;2239;48.152;11.584;2022-07-18T05:49:06;20.10;92.20
4453;DHT22;2239;48.152;11.584;2022-07-18T05:51:32;20.20;92.00
4453;DHT22;2239;48.152;11.584;2022-07-18T05:53:57;20.40;91.90
4453;DHT22;2239;48.152;11.584;2022-07-18T05:56:23;20.50;91.20
4453;DHT22;2239;48.152;11.584;2022-07-18T05:58:48;20.60;91.00
4453;DHT22;2239;48.152;11.584;2022-07-18T06:01:14;20.70;91.00
4453;DHT22;2239;48.152;11.584;2022-07-18T06:03:46;20.80;90.70
4453;DHT22;2239;48.152;11.584;2022-07-18T06:06:13;20.90;90.60
4453;DHT22;2239;48.152;11.584;2022-07-18T06:08:39;20.90;90.20
4453;DHT22;2239;48.152;11.584;2022-07-18T06:11:04;21.00;90.00
4453;DHT22;2239;48.152;11.584;2022-07-18T06:13:32;21.10;89.10
4453;DHT22;2239;48.152;11.584;2022-07-18T06:15:58;21.20;89.10
4453;DHT22;2239;48.152;11.584;2022-07-18T06:18:24;21.30;87.30
4453;DHT22;2239;48.152;11.584;2022-07-18T06:20:49;21.50;87.70
4453;DHT22;2239;48.152;11.584;2022-07-18T06:23:15;21.70;88.00
4453;DHT22;2239;48.152;11.584;2022-07-18T06:25:41;21.90;88.10
4453;DHT22;2239;48.152;11.584;2022-07-18T06:28:06;21.90;87.80
4453;DHT22;2239;48.152;11.584;2022-07-18T06:30:32;22.00;87.30
4453;DHT22;2239;48.152;11.584;2022-07-18T06:32:58;22.00;85.90
4453;DHT22;2239;48.152;11.584;2022-07-18T06:35:23;22.10;85.20
4453;DHT22;2239;48.152;11.584;2022-07-18T06:37:49;22.20;85.20
4453;DHT22;2239;48.152;11.584;2022-07-18T06:40:14;22.30;84.40
4453;DHT22;2239;48.152;11.584;2022-07-18T06:42:40;22.50;83.30
4453;DHT22;2239;48.152;11.584;2022-07-18T06:45:06;22.60;82.80
4453;DHT22;2239;48.152;11.584;2022-07-18T06:47:32;22.80;81.40
4453;DHT22;2239;48.152;11.584;2022-07-18T06:49:57;22.90;82.10
4453;DHT22;2239;48.152;11.584;2022-07-18T06:52:23;23.10;81.50
4453;DHT22;2239;48.152;11.584;2022-07-18T06:54:48;23.20;81.10
4453;DHT22;2239;48.152;11.584;2022-07-18T06:57:14;23.40;80.80
4453;DHT22;2239;48.152;11.584;2022-07-18T06:59:40;23.50;80.40
4453;DHT22;2239;48.152;11.584;2022-07-18T07:02:05;23.60;78.60
4453;DHT22;2239;48.152;11.584;2022-07-18T07:04:31;23.80;78.00
4453;DHT22;2239;48.152;11.584;2022-07-18T07:06:56;24.00;77.90
4453;DHT22;2239;48.152;11.584;2022-07-18T07:09:22;24.20;76.70
4453;DHT22;2239;48.152;11.584;2022-07-18T07:11:47;24.30;76.60
4453;DHT22;2239;48.152;11.584;2022-07-18T07:14:13;24.40;76.30
4453;DHT22;2239;48.152;11.584;2022-07-18T07:16:38;24.50;75.70
4453;DHT22;2239;48.152;11.584;2022-07-18T07:19:04;24.60;75.70
4453;DHT22;2239;48.152;11.584;2022-07-18T07:21:30;24.60;74.70
4453;DHT22;2239;48.152;11.584;2022-07-18T07:23:55;24.70;74.50
4453;DHT22;2239;48.152;11.584;2022-07-18T07:26:21;24.80;74.30
4453;DHT22;2239;48.152;11.584;2022-07-18T07:28:46;24.80;73.50
4453;DHT22;2239;48.152;11.584;2022-07-18T07:31:12;24.90;72.20
4453;DHT22;2239;48.152;11.584;2022-07-18T07:33:37;25.00;72.90
4453;DHT22;2239;48.152;11.584;2022-07-18T07:36:03;25.20;71.60
4453;DHT22;2239;48.152;11.584;2022-07-18T07:38:30;25.20;71.10
4453;DHT22;2239;48.152;11.584;2022-07-18T07:40:56;25.20;70.80
4453;DHT22;2239;48.152;11.584;2022-07-18T07:43:21;25.40;69.90
4453;DHT22;2239;48.152;11.584;2022-07-18T07:45:49;25.40;69.60
4453;DHT22;2239;48.152;11.584;2022-07-18T07:48:16;25.50;66.90
4453;DHT22;2239;48.152;11.584;2022-07-18T07:50:42;25.50;66.00
4453;DHT22;2239;48.152;11.584;2022-07-18T07:53:07;25.50;67.20
4453;DHT22;2239;48.152;11.584;2022-07-18T07:55:34;25.60;64.60
4453;DHT22;2239;48.152;11.584;2022-07-18T07:58:00;25.70;62.20
4453;DHT22;2239;48.152;11.584;2022-07-18T08:00:25;25.80;60.90
4453;DHT22;2239;48.152;11.584;2022-07-18T08:02:57;25.80;59.50
4453;DHT22;2239;48.152;11.584;2022-07-18T08:05:24;25.80;58.60
4453;DHT22;2239;48.152;11.584;2022-07-18T08:07:50;25.90;58.00
4453;DHT22;2239;48.152;11.584;2022-07-18T08:10:16;25.90;58.20
4453;DHT22;2239;48.152;11.584;2022-07-18T08:12:42;26.10;58.90
4453;DHT22;2239;48.152;11.584;2022-07-18T08:15:08;26.20;58.60
4453;DHT22;2239;48.152;11.584;2022-07-18T08:17:34;26.30;57.00
4453;DHT22;2239;48.152;11.584;2022-07-18T08:20:00;26.40;56.60
4453;DHT22;2239;48.152;11.584;2022-07-18T08:22:26;26.60;57.10
4453;DHT22;2239;48.152;11.584;2022-07-18T08:24:51;26.70;56.40
4453;DHT22;2239;48.152;11.584;2022-07-18T08:27:17;26.90;54.70
4453;DHT22;2239;48.152;11.584;2022-07-18T08:29:43;27.00;54.40
4453;DHT22;2239;48.152;11.584;2022-07-18T08:32:08;27.10;54.30
4453;DHT22;2239;48.152;11.584;2022-07-18T08:34:34;27.30;52.30
4453;DHT22;2239;48.152;11.584;2022-07-18T08:37:00;27.40;51.50
4453;DHT22;2239;48.152;11.584;2022-07-18T08:39:25;27.60;52.60
4453;DHT22;2239;48.152;11.584;2022-07-18T08:41:51;27.70;50.10
4453;DHT22;2239;48.152;11.584;2022-07-18T08:44:18;27.70;50.40
4453;DHT22;2239;48.152;11.584;2022-07-18T08:46:49;27.80;51.20
4453;DHT22;2239;48.152;11.584;2022-07-18T08:49:15;27.90;49.60
4453;DHT22;2239;48.152;11.584;2022-07-18T08:51:43;28.10;49.30
4453;DHT22;2239;48.152;11.584;2022-07-18T08:54:09;27.90;46.50
4453;DHT22;2239;48.152;11.584;2022-07-18T08:56:36;27.80;47.00
4453;DHT22;2239;48.152;11.584;2022-07-18T08:59:02;27.80;47.10
4453;DHT22;2239;48.152;11.584;2022-07-18T09:01:31;27.90;48.30
4453;DHT22;2239;48.152;11.584;2022-07-18T09:03:56;28.30;46.80
4453;DHT22;2239;48.152;11.584;2022-07-18T09:06:48;28.40;45.70
4453;DHT22;2239;48.152;11.584;2022-07-18T09:09:15;28.60;45.10
4453;DHT22;2239;48.152;11.584;2022-07-18T09:11:56;28.80;45.00
4453;DHT22;2239;48.152;11.584;2022-07-18T09:14:39;28.90;44.30
4453;DHT22;2239;48.152;11.584;2022-07-18T09:17:19;29.00;43.00
4453;DHT22;2239;48.152;11.584;2022-07-18T09:22:35;29.10;42.70
4453;DHT22;2239;48.152;11.584;2022-07-18T09:25:08;29.30;42.70
4453;DHT22;2239;48.152;11.584;2022-07-18T09:27:41;29.40;40.90
4453;DHT22;2239;48.152;11.584;2022-07-18T09:30:30;29.40;40.00
4453;DHT22;2239;48.152;11.584;2022-07-18T09:35:43;29.60;40.10
4453;DHT22;2239;48.152;11.584;2022-07-18T09:38:11;29.60;38.80
4453;DHT22;2239;48.152;11.584;2022-07-18T09:40:45;29.60;38.00
4453;DHT22;2239;48.152;11.584;2022-07-18T09:43:13;29.70;38.20
4453;DHT22;2239;48.152;11.584;2022-07-18T09:45:50;29.80;37.60
4453;DHT22;2239;48.152;11.584;2022-07-18T09:48:24;29.80;37.70
4453;DHT22;2239;48.152;11.584;2022-07-18T09:50:55;29.80;37.20
4453;DHT22;2239;48.152;11.584;2022-07-18T09:53:22;30.00;37.10
4453;DHT22;2239;48.152;11.584;2022-07-18T09:55:57;30.10;37.20
4453;DHT22;2239;48.152;11.584;2022-07-18T09:58:25;30.20;35.80
4453;DHT22;2239;48.152;11.584;2022-07-18T10:00:52;30.30;36.90
4453;DHT22;2239;48.152;11.584;2022-07-18T10:03:19;30.50;37.10
4453;DHT22;2239;48.152;11.584;2022-07-18T10:05:45;30.50;35.40
4453;DHT22;2239;48.152;11.584;2022-07-18T10:08:16;30.60;35.50
4453;DHT22;2239;48.152;11.584;2022-07-18T10:10:45;30.80;35.20
4453;DHT22;2239;48.152;11.584;2022-07-18T10:13:11;31.00;36.60
4453;DHT22;2239;48.152;11.584;2022-07-18T10:15:39;31.00;36.10
4453;DHT22;2239;48.152;11.584;2022-07-18T10:18:07;30.90;36.00
4453;DHT22;2239;48.152;11.584;2022-07-18T10:20:37;30.90;36.20
4453;DHT22;2239;48.152;11.584;2022-07-18T10:26:06;31.10;36.80
4453;DHT22;2239;48.152;11.584;2022-07-18T10:28:32;31.30;36.30
4453;DHT22;2239;48.152;11.584;2022-07-18T10:31:13;31.30;35.70
4453;DHT22;2239;48.152;11.584;2022-07-18T10:33:45;31.00;35.40
4453;DHT22;2239;48.152;11.584;2022-07-18T10:36:20;31.10;36.40
4453;DHT22;2239;48.152;11.584;2022-07-18T11:00:23;30.60;37.20
4453;DHT22;2239;48.152;11.584;2022-07-18T11:03:11;30.90;37.60
4453;DHT22;2239;48.152;11.584;2022-07-18T11:05:46;31.20;36.70
4453;DHT22;2239;48.152;11.584;2022-07-18T11:21:32;31.30;36.50
4453;DHT22;2239;48.152;11.584;2022-07-18T11:24:11;31.60;37.10
4453;DHT22;2239;48.152;11.584;2022-07-18T11:26:43;31.90;36.60
4453;DHT22;2239;48.152;11.584;2022-07-18T11:29:11;31.60;36.00
4453;DHT22;2239;48.152;11.584;2022-07-18T11:31:47;31.50;36.30
4453;DHT22;2239;48.152;11.584;2022-07-18T11:34:13;31.50;36.50
4453;DHT22;2239;48.152;11.584;2022-07-18T11:36:41;31.40;35.90
4453;DHT22;2239;48.152;11.584;2022-07-18T11:39:07;31.40;35.90
4453;DHT22;2239;48.152;11.584;2022-07-18T11:41:39;31.30;36.00
4453;DHT22;2239;48.152;11.584;2022-07-18T11:44:15;31.40;35.50
4453;DHT22;2239;48.152;11.584;2022-07-18T11:46:41;31.60;36.20
4453;DHT22;2239;48.152;11.584;2022-07-18T11:49:07;31.70;35.20
4453;DHT22;2239;48.152;11.584;2022-07-18T11:51:41;31.10;34.90
4453;DHT22;2239;48.152;11.584;2022-07-18T11:54:07;31.10;35.80
4453;DHT22;2239;48.152;11.584;2022-07-18T11:56:32;31.20;35.90
4453;DHT22;2239;48.152;11.584;2022-07-18T11:58:58;31.30;36.10
4453;DHT22;2239;48.152;11.584;2022-07-18T12:01:31;31.50;35.90
4453;DHT22;2239;48.152;11.584;2022-07-18T12:03:57;31.80;35.60
4453;DHT22;2239;48.152;11.584;2022-07-18T12:06:24;31.80;35.10
4453;DHT22;2239;48.152;11.584;2022-07-18T12:08:52;31.70;35.10
4453;DHT22;2239;48.152;11.584;2022-07-18T12:11:27;31.40;35.30
4453;DHT22;2239;48.152;11.584;2022-07-18T12:13:55;31.40;36.00
4453;DHT22;2239;48.152;11.584;2022-07-18T12:16:48;31.20;35.30
4453;DHT22;2239;48.152;11.584;2022-07-18T12:19:20;31.30;36.00
4453;DHT22;2239;48.152;11.584;2022-07-18T12:24:36;31.90;35.30
4453;DHT22;2239;48.152;11.584;2022-07-18T12:27:22;32.10;34.80
4453;DHT22;2239;48.152;11.584;2022-07-18T12:29:55;32.00;34.60
4453;DHT22;2239;48.152;11.584;2022-07-18T12:32:27;32.00;34.70
4453;DHT22;2239;48.152;11.584;2022-07-18T12:34:56;32.00;33.80
4453;DHT22;2239;48.152;11.584;2022-07-18T12:37:24;31.90;33.90
4453;DHT22;2239;48.152;11.584;2022-07-18T12:39:56;31.90;34.20
4453;DHT22;2239;48.152;11.584;2022-07-18T12:42:36;31.80;34.70
4453;DHT22;2239;48.152;11.584;2022-07-18T12:45:03;31.90;34.40
4453;DHT22;2239;48.152;11.584;2022-07-18T12:47:29;32.00;34.20
4453;DHT22;2239;48.152;11.584;2022-07-18T12:49:54;31.80;34.20
4453;DHT22;2239;48.152;11.584;2022-07-18T12:52:20;31.70;34.20
4453;DHT22;2239;48.152;11.584;2022-07-18T12:54:47;31.50;34.50
4453;DHT22;2239;48.152;11.584;2022-07-18T12:57:13;31.50;34.60
4453;DHT22;2239;48.152;11.584;2022-07-18T12:59:38;31.60;35.10
4453;DHT22;2239;48.152;11.584;2022-07-18T13:02:04;31.60;34.50
4453;DHT22;2239;48.152;11.584;2022-07-18T13:04:30;31.60;34.30
4453;DHT22;2239;48.152;11.584;2022-07-18T13:06:55;31.80;33.90
4453;DHT22;2239;48.152;11.584;2022-07-18T13:09:22;31.80;33.90
4453;DHT22;2239;48.152;11.584;2022-07-18T13:11:48;31.80;34.00
4453;DHT22;2239;48.152;11.584;2022-07-18T13:14:15;32.10;34.00
4453;DHT22;2239;48.152;11.584;2022-07-18T13:16:42;32.30;34.50
4453;DHT22;2239;48.152;11.584;2022-07-18T13:19:15;32.20;33.80
4453;DHT22;2239;48.152;11.584;2022-07-18T13:21:42;32.20;34.10
4453;DHT22;2239;48.152;11.584;2022-07-18T13:24:08;32.10;33.80
4453;DHT22;2239;48.152;11.584;2022-07-18T13:26:34;32.10;34.00
4453;DHT22;2239;48.152;11.584;2022-07-18T13:28:59;32.10;34.70
4453;DHT22;2239;48.152;11.584;2022-07-18T13:31:25;32.20;34.60
4453;DHT22;2239;48.152;11.584;2022-07-18T13:33:50;32.20;34.10
4453;DHT22;2239;48.152;11.584;2022-07-18T13:36:19;32.20;33.70
4453;DHT22;2239;48.152;11.584;2022-07-18T13:38:46;32.20;34.20
4453;DHT22;2239;48.152;11.584;2022-07-18T13:41:12;32.20;33.80
4453;DHT22;2239;48.152;11.584;2022-07-18T13:43:38;32.30;34.10
4453;DHT22;2239;48.152;11.584;2022-07-18T13:46:09;32.20;33.20
4453;DHT22;2239;48.152;11.584;2022-07-18T13:48:35;32.00;34.20
4453;DHT22;2239;48.152;11.584;2022-07-18T13:51:02;32.00;33.70
4453;DHT22;2239;48.152;11.584;2022-07-18T13:53:27;32.00;34.00
4453;DHT22;2239;48.152;11.584;2022-07-18T13:55:53;32.10;34.30
4453;DHT22;2239;48.152;11.584;2022-07-18T13:58:19;32.00;33.50
4453;DHT22;2239;48.152;11.584;2022-07-18T14:00:46;32.10;34.20
4453;DHT22;2239;48.152;11.584;2022-07-18T14:03:12;32.00;34.00
4453;DHT22;2239;48.152;11.584;2022-07-18T14:05:38;31.90;34.60
4453;DHT22;2239;48.152;11.584;2022-07-18T14:08:04;31.80;35.00
4453;DHT22;2239;48.152;11.584;2022-07-18T14:10:30;31.90;34.70
4453;DHT22;2239;48.152;11.584;2022-07-18T14:12:56;31.70;34.40
4453;DHT22;2239;48.152;11.584;2022-07-18T14:15:22;31.70;34.50
4453;DHT22;2239;48.152;11.584;2022-07-18T14:17:47;31.70;34.60
4453;DHT22;2239;48.152;11.584;2022-07-18T14:20:13;31.70;34.80
4453;DHT22;2239;48.152;11.584;2022-07-18T14:22:40;31.90;34.90
4453;DHT22;2239;48.152;11.584;2022-07-18T14:25:08;31.90;34.50
4453;DHT22;2239;48.152;11.584;2022-07-18T14:27:34;31.80;34.30
4453;DHT22;2239;48.152;11.584;2022-07-18T14:30:00;31.70;34.40
4453;DHT22;2239;48.152;11.584;2022-07-18T14:32:27;31.60;35.40
4453;DHT22;2239;48.152;11.584;2022-07-18T14:34:53;31.60;34.90
4453;DHT22;2239;48.152;11.584;2022-07-18T14:37:18;31.70;35.50
4453;DHT22;2239;48.152;11.584;2022-07-18T14:39:44;31.70;34.90
4453;DHT22;2239;48.152;11.584;2022-07-18T14:42:09;31.40;35.70
4453;DHT22;2239;48.152;11.584;2022-07-18T14:44:35;31.30;36.00
4453;DHT22;2239;48.152;11.584;2022-07-18T14:47:01;31.40;35.60
4453;DHT22;2239;48.152;11.584;2022-07-18T14:49:27;31.50;35.40
4453;DHT22;2239;48.152;11.584;2022-07-18T14:51:52;31.40;35.40
4453;DHT22;2239;48.152;11.584;2022-07-18T14:54:18;31.40;35.80
4453;DHT22;2239;48.152;11.584;2022-07-18T14:56:43;31.50;35.60
4453;DHT22;2239;48.152;11.584;2022-07-18T14:59:09;31.50;35.40
4453;DHT22;2239;48.152;11.584;2022-07-18T15:01:35;31.50;35.80
4453;DHT22;2239;48.152;11.584;2022-07-18T15:04:00;31.20;36.30
4453;DHT22;2239;48.152;11.584;2022-07-18T15:06:26;31.10;36.40
4453;DHT22;2239;48.152;11.584;2022-07-18T15:08:52;31.20;36.80
4453;DHT22;2239;48.152;11.584;2022-07-18T15:11:17;31.30;36.60
4453;DHT22;2239;48.152;11.584;2022-07-18T15:13:46;31.30;36.70
4453;DHT22;2239;48.152;11.584;2022-07-18T15:16:12;31.40;36.80
4453;DHT22;2239;48.152;11.584;2022-07-18T15:18:38;31.20;36.20
4453;DHT22;2239;48.152;11.584;2022-07-18T15:21:03;31.00;35.90
4453;DHT22;2239;48.152;11.584;2022-07-18T15:23:29;30.90;36.40
4453;DHT22;2239;48.152;11.584;2022-07-18T15:25:55;30.90;36.60
4453;DHT22;2239;48.152;11.584;2022-07-18T15:28:20;31.00;36.90
4453;DHT22;2239;48.152;11.584;2022-07-18T15:30:48;31.20;37.00
4453;DHT22;2239;48.152;11.584;2022-07-18T15:33:14;31.00;36.70
4453;DHT22;2239;48.152;11.584;2022-07-18T15:35:40;30.90;36.90
4453;DHT22;2239;48.152;11.584;2022-07-18T15:38:05;30.90;37.60
4453;DHT22;2239;48.152;11.584;2022-07-18T15:40:31;30.80;37.80
4453;DHT22;2239;48.152;11.584;2022-07-18T15:42:56;30.70;37.50
4453;DHT22;2239;48.152;11.584;2022-07-18T15:45:22;30.70;37.50
4453;DHT22;2239;48.152;11.584;2022-07-18T15:47:47;30.70;37.70
4453;DHT22;2239;48.152;11.584;2022-07-18T15:50:13;30.80;38.00
4453;DHT22;2239;48.152;11.584;2022-07-18T15:52:40;31.00;38.20
4453;DHT22;2239;48.152;11.584;2022-07-18T15:55:06;31.00;37.20
4453;DHT22;2239;48.152;11.584;2022-07-18T15:57:32;31.00;37.20
4453;DHT22;2239;48.152;11.584;2022-07-18T15:59:57;30.90;37.70
4453;DHT22;2239;48.152;11.584;2022-07-18T16:02:23;30.70;37.60
4453;DHT22;2239;48.152;11.584;2022-07-18T16:04:48;30.70;38.00
4453;DHT22;2239;48.152;11.584;2022-07-18T16:07:14;30.80;37.60
4453;DHT22;2239;48.152;11.584;2022-07-18T16:09:39;30.80;37.60
4453;DHT22;2239;48.152;11.584;2022-07-18T16:12:06;30.70;37.60
4453;DHT22;2239;48.152;11.584;2022-07-18T16:14:32;30.60;37.30
4453;DHT22;2239;48.152;11.584;2022-07-18T16:16:58;30.60;37.70
4453;DHT22;2239;48.152;11.584;2022-07-18T16:19:24;30.50;38.00
4453;DHT22;2239;48.152;11.584;2022-07-18T16:21:50;30.20;38.20
4453;DHT22;2239;48.152;11.584;2022-07-18T16:24:15;30.10;38.70
4453;DHT22;2239;48.152;11.584;2022-07-18T16:26:41;30.10;39.10
4453;DHT22;2239;48.152;11.584;2022-07-18T16:29:07;30.20;38.60